Time;durP1;ratioP1;P1;durP2;ratioP2;P2;SDS_P1;SDS_P2;PMS_P1;PMS_P2;Temp;Humidity;BMP_temperature;BMP_pressure;BME280_temperature;BME280_humidity;BME280_pressure;Samples;Min_cycle;Max_cycle;Signal;HPM_P1;HPM_P2
2022/05/31 00:00:25;;;;;;;7.20;4.80;;;;;;;9.78;73.08;100306.02;106088;1271;22561;-75
2022/05/31 00:02:55;;;;;;;4.80;4.20;;;;;;;9.76;73.17;100306.73;106191;1271;24269;-70
2022/05/31 00:05:22;;;;;;;5.60;3.80;;;;;;;9.73;73.10;100305.17;106020;1274;22639;-71
2022/05/31 00:07:49;;;;;;;4.50;4.10;;;;;;;9.72;73.20;100306.59;105929;1274;22868;-75
2022/05/31 00:10:16;;;;;;;5.30;4.10;;;;;;;9.71;73.31;100308.00;106076;1271;25246;-72
2022/05/31 00:12:43;;;;;;;7.70;4.20;;;;;;;9.69;73.27;100310.48;106306;1271;22681;-71
2022/05/31 00:15:13;;;;;;;7.90;4.70;;;;;;;9.68;73.42;100308.38;106151;1271;22627;-75
2022/05/31 00:17:41;;;;;;;5.70;3.80;;;;;;;9.70;73.38;100308.73;106319;1271;25238;-72
2022/05/31 00:20:11;;;;;;;9.60;4.60;;;;;;;9.69;73.37;100303.61;106374;1271;22524;-73
2022/05/31 00:22:41;;;;;;;5.40;4.40;;;;;;;9.67;73.33;100310.84;106227;1271;22547;-75
2022/05/31 00:25:09;;;;;;;5.00;4.00;;;;;;;9.65;73.35;100308.04;106291;1271;22526;-74
2022/05/31 00:27:36;;;;;;;6.90;4.50;;;;;;;9.66;73.36;100307.34;106314;1271;25614;-76
2022/05/31 00:30:05;;;;;;;7.80;4.50;;;;;;;9.67;73.54;100308.04;106098;1271;24161;-77
2022/05/31 00:32:37;;;;;;;6.00;4.40;;;;;;;9.70;73.49;100305.20;106193;1271;25295;-74
2022/05/31 00:35:08;;;;;;;4.80;4.00;;;;;;;9.73;73.34;100307.82;105913;1274;22580;-74
2022/05/31 00:37:36;;;;;;;5.00;4.30;;;;;;;9.74;73.31;100314.14;106123;1271;25203;-72
2022/05/31 00:40:04;;;;;;;6.80;4.80;;;;;;;9.73;73.18;100318.38;106095;1271;24351;-72
2022/05/31 00:42:47;;;;;;;7.40;5.00;;;;;;;9.73;73.30;100320.12;106414;1270;25347;-74
2022/05/31 00:45:14;;;;;;;5.80;5.20;;;;;;;9.73;73.23;100323.46;106242;1273;25385;-73
2022/05/31 00:47:42;;;;;;;6.60;4.40;;;;;;;9.72;73.26;100327.70;106268;1272;22654;-75
2022/05/31 00:50:14;;;;;;;6.40;4.40;;;;;;;9.69;73.28;100321.21;106146;1270;22551;-75
2022/05/31 00:52:47;;;;;;;5.40;4.80;;;;;;;9.70;73.20;100329.30;106241;1271;22548;-75
2022/05/31 00:55:20;;;;;;;8.70;5.00;;;;;;;9.68;73.24;100324.74;106267;1274;22560;-73
2022/05/31 00:57:54;;;;;;;5.70;4.90;;;;;;;9.65;73.29;100323.52;106195;1271;24258;-76
2022/05/31 01:00:21;;;;;;;6.30;4.70;;;;;;;9.68;73.28;100325.08;105999;1271;22540;-76
2022/05/31 01:02:50;;;;;;;6.20;4.80;;;;;;;9.63;73.27;100328.98;106325;1271;25249;-73
2022/05/31 01:05:19;;;;;;;5.40;4.40;;;;;;;9.58;73.35;100325.48;106228;1271;25417;-73
2022/05/31 01:07:46;;;;;;;5.80;4.50;;;;;;;9.53;73.44;100329.55;106381;1271;25245;-74
2022/05/31 01:10:15;;;;;;;6.40;4.70;;;;;;;9.52;73.54;100332.73;106201;1271;25514;-75
2022/05/31 01:12:47;;;;;;;6.80;4.80;;;;;;;9.49;73.63;100338.20;106431;1270;22559;-75
2022/05/31 01:15:33;;;;;;;6.10;4.50;;;;;;;9.48;73.77;100335.75;106140;1271;25319;-76
2022/05/31 01:18:19;;;;;;;5.00;4.10;;;;;;;9.47;73.65;100337.16;106581;1271;24303;-74
2022/05/31 01:21:06;;;;;;;9.20;4.40;;;;;;;9.46;73.75;100337.52;106580;1270;24235;-80
2022/05/31 01:24:08;;;;;;;6.30;4.90;;;;;;;9.47;73.71;100344.55;106030;1270;22566;-72
2022/05/31 01:26:39;;;;;;;5.10;4.40;;;;;;;9.47;73.80;100347.02;106372;1271;22570;-73
2022/05/31 01:29:18;;;;;;;7.70;5.40;;;;;;;9.47;73.84;100353.16;106351;1271;25448;-74
2022/05/31 01:31:55;;;;;;;7.80;4.90;;;;;;;9.46;73.87;100351.23;106338;1270;25421;-75
2022/05/31 01:34:23;;;;;;;6.20;5.10;;;;;;;9.45;73.92;100350.00;106243;1271;22560;-75
2022/05/31 01:36:55;;;;;;;6.70;4.80;;;;;;;9.43;73.88;100348.42;106267;1271;25240;-74
2022/05/31 01:39:30;;;;;;;5.30;4.80;;;;;;;9.39;73.89;100355.99;106266;1273;22627;-75
2022/05/31 01:42:10;;;;;;;6.20;4.90;;;;;;;9.37;74.06;100360.05;106431;1270;25242;-74
2022/05/31 01:44:41;;;;;;;6.80;5.60;;;;;;;9.35;74.09;100364.45;106211;1272;22553;-74
2022/05/31 01:47:08;;;;;;;8.70;5.60;;;;;;;9.34;74.23;100369.04;106154;1272;22531;-74
2022/05/31 01:49:41;;;;;;;5.80;4.80;;;;;;;9.36;74.22;100368.85;106441;1271;24587;-74
2022/05/31 01:52:10;;;;;;;4.80;4.30;;;;;;;9.34;74.15;100369.38;106380;1270;25311;-75
2022/05/31 01:54:39;;;;;;;7.40;5.30;;;;;;;9.31;73.93;100366.42;106303;1270;24293;-73
2022/05/31 01:57:10;;;;;;;8.00;5.70;;;;;;;9.29;74.09;100371.00;106244;1274;25347;-74
2022/05/31 01:59:43;;;;;;;9.10;6.70;;;;;;;9.31;74.14;100377.13;106177;1270;25250;-73
2022/05/31 02:02:15;;;;;;;7.00;5.60;;;;;;;9.33;74.08;100380.63;106232;1271;25396;-74
2022/05/31 02:04:43;;;;;;;9.30;5.60;;;;;;;9.33;74.05;100385.04;106322;1272;23306;-75
2022/05/31 02:07:14;;;;;;;7.00;5.50;;;;;;;9.33;74.00;100381.52;106029;1271;25472;-77
2022/05/31 02:09:46;;;;;;;6.90;6.30;;;;;;;9.31;73.98;100375.20;106337;1271;25242;-75
2022/05/31 02:12:28;;;;;;;6.60;5.90;;;;;;;9.28;73.98;100375.21;106193;1271;22660;-74
2022/05/31 02:15:15;;;;;;;7.40;5.70;;;;;;;9.23;74.02;100379.10;106210;1270;22548;-75
2022/05/31 02:17:59;;;;;;;5.90;5.00;;;;;;;9.20;74.03;100385.97;106299;1270;22612;-76
2022/05/31 02:20:46;;;;;;;4.70;4.30;;;;;;;9.16;74.02;100390.70;106193;1271;22602;-73
2022/05/31 02:23:13;;;;;;;6.00;5.20;;;;;;;9.10;74.01;100389.50;106490;1270;22556;-73
2022/05/31 02:25:40;;;;;;;7.60;5.20;;;;;;;9.13;74.20;100392.31;107299;1271;22586;-75
2022/05/31 02:28:07;;;;;;;7.20;5.80;;;;;;;9.12;74.19;100388.45;106653;1270;22564;-76
2022/05/31 02:30:33;;;;;;;8.90;6.10;;;;;;;9.15;74.37;100392.48;106253;1270;22530;-77
2022/05/31 02:33:00;;;;;;;8.30;5.60;;;;;;;9.21;74.32;100394.57;106366;1271;22525;-76
2022/05/31 02:35:27;;;;;;;7.70;5.70;;;;;;;9.23;74.25;100391.40;106316;1270;22698;-76
2022/05/31 02:37:55;;;;;;;5.60;4.90;;;;;;;9.24;73.95;100393.67;106322;1270;22563;-76
2022/05/31 02:40:22;;;;;;;6.40;5.50;;;;;;;9.24;73.95;100391.39;106307;1271;22561;-77
2022/05/31 02:42:49;;;;;;;6.40;5.30;;;;;;;9.24;73.94;100390.86;106068;1270;25377;-73
2022/05/31 02:45:16;;;;;;;8.00;5.70;;;;;;;9.25;73.94;100389.81;106008;1271;22532;-77
2022/05/31 02:47:43;;;;;;;8.40;6.40;;;;;;;9.22;73.87;100385.44;106079;1271;22558;-73
2022/05/31 02:50:11;;;;;;;7.40;5.60;;;;;;;9.20;73.85;100391.59;106048;1271;22532;-75
2022/05/31 02:52:38;;;;;;;6.40;5.00;;;;;;;9.14;73.75;100390.54;105948;1271;22567;-75
2022/05/31 02:55:05;;;;;;;6.80;5.10;;;;;;;9.17;73.88;100394.77;105903;1271;24286;-78
2022/05/31 02:57:32;;;;;;;5.70;5.20;;;;;;;9.17;73.80;100395.98;106133;1271;26504;-77
2022/05/31 03:00:18;;;;;;;7.30;5.70;;;;;;;9.15;73.88;100393.19;106105;1270;22515;-81
2022/05/31 03:03:04;;;;;;;6.40;5.80;;;;;;;9.13;73.87;100391.61;106068;1271;22719;-78
2022/05/31 03:05:51;;;;;;;6.90;5.70;;;;;;;9.11;73.90;100397.07;106159;1271;22570;-78
2022/05/31 03:08:18;;;;;;;6.20;5.40;;;;;;;9.08;73.93;100394.79;106272;1271;24087;-81
2022/05/31 03:11:10;;;;;;;5.60;4.40;;;;;;;9.09;73.97;100393.37;106200;1270;22547;-78
2022/05/31 03:13:38;;;;;;;8.20;5.20;;;;;;;9.09;73.93;100397.95;106322;1270;22550;-76
2022/05/31 03:16:06;;;;;;;7.70;5.50;;;;;;;9.12;74.13;100399.69;106384;1271;23917;-75
2022/05/31 03:18:41;;;;;;;7.50;5.70;;;;;;;9.13;74.05;100401.44;106206;1270;24288;-77
2022/05/31 03:21:19;;;;;;;7.40;6.30;;;;;;;9.12;73.95;100404.79;106257;1270;25541;-74
2022/05/31 03:23:57;;;;;;;9.00;5.70;;;;;;;9.13;74.16;100408.99;106124;1271;26509;-76
2022/05/31 03:26:27;;;;;;;8.10;5.50;;;;;;;9.16;73.95;100411.98;105926;1271;24286;-78
2022/05/31 03:28:53;;;;;;;5.40;4.90;;;;;;;9.16;73.98;100416.37;106337;1270;25367;-77
2022/05/31 03:31:21;;;;;;;6.70;5.30;;;;;;;9.18;73.75;100415.49;106051;1271;24211;-80
2022/05/31 03:33:48;;;;;;;7.00;5.30;;;;;;;9.19;73.80;100414.26;106186;1271;25529;-76
2022/05/31 03:36:15;;;;;;;8.70;5.40;;;;;;;9.22;73.84;100412.31;106007;1271;22703;-79
2022/05/31 03:38:46;;;;;;;5.40;4.60;;;;;;;9.22;73.71;100423.20;106229;1271;22592;-75
2022/05/31 03:41:13;;;;;;;8.20;6.00;;;;;;;9.22;73.76;100420.92;106072;1271;25318;-79
2022/05/31 03:43:44;;;;;;;8.60;5.30;;;;;;;9.23;73.69;100419.00;106385;1271;22625;-76
2022/05/31 03:46:20;;;;;;;6.00;4.70;;;;;;;9.24;73.69;100419.33;106122;1270;22557;-79
2022/05/31 03:49:09;;;;;;;6.30;4.90;;;;;;;9.29;73.48;100424.42;106102;1270;22550;-76
2022/05/31 03:51:46;;;;;;;8.10;5.30;;;;;;;9.35;73.47;100431.06;106347;1270;22575;-74
2022/05/31 03:54:23;;;;;;;5.50;5.00;;;;;;;9.44;73.35;100429.98;106207;1271;22544;-76
2022/05/31 03:57:18;;;;;;;8.30;4.80;;;;;;;9.49;73.22;100428.20;106342;1270;22722;-78
2022/05/31 03:59:50;;;;;;;5.40;4.90;;;;;;;9.52;73.08;100430.13;106207;1270;22577;-79
2022/05/31 04:02:18;;;;;;;6.90;5.30;;;;;;;9.56;73.02;100429.93;106263;1270;22466;-75
2022/05/31 04:04:45;;;;;;;5.50;4.80;;;;;;;9.56;72.65;100429.05;106499;1270;22711;-76
2022/05/31 04:07:12;;;;;;;7.20;4.80;;;;;;;9.57;72.45;100441.54;106254;1271;22525;-76
2022/05/31 04:09:38;;;;;;;6.20;4.20;;;;;;;9.57;72.50;100440.48;106060;1271;22858;-80
2022/05/31 04:12:09;;;;;;;6.70;4.80;;;;;;;9.62;72.44;100445.23;106295;1270;25412;-77
2022/05/31 04:14:55;;;;;;;7.00;5.00;;;;;;;9.69;72.26;100446.77;106188;1270;22970;-79
2022/05/31 04:17:22;;;;;;;5.20;4.50;;;;;;;9.71;72.24;100448.34;106097;1270;25283;-78
2022/05/31 04:19:50;;;;;;;5.80;5.20;;;;;;;9.74;72.01;100445.69;106433;1270;22571;-80
2022/05/31 04:22:17;;;;;;;7.10;5.00;;;;;;;9.77;72.05;100446.73;106764;1270;22577;-81
2022/05/31 04:24:44;;;;;;;7.00;5.50;;;;;;;9.82;71.83;100450.75;108527;1271;22548;-84
2022/05/31 04:27:30;;;;;;;6.30;5.30;;;;;;;9.85;71.82;100452.85;108421;1270;22926;-82
2022/05/31 04:30:23;;;;;;;6.30;4.90;;;;;;;9.90;71.71;100459.68;107786;1270;22678;-81
2022/05/31 04:33:09;;;;;;;5.80;4.70;;;;;;;9.95;71.31;100467.39;108269;1271;23110;-82
2022/05/31 04:35:36;;;;;;;7.60;4.80;;;;;;;9.95;71.23;100462.98;107896;1271;24375;-81
2022/05/31 04:38:03;;;;;;;6.20;5.00;;;;;;;9.96;71.07;100464.05;108413;1270;23773;-81
2022/05/31 04:40:45;;;;;;;5.80;4.50;;;;;;;10.01;71.20;100475.27;108228;1271;25450;-86
2022/05/31 04:43:18;;;;;;;5.00;3.70;;;;;;;10.08;71.40;100474.36;106627;1270;24472;-82
2022/05/31 04:46:23;;;;;;;8.40;4.70;;;;;;;10.12;70.94;100474.33;106341;1270;22554;-77
2022/05/31 04:49:21;;;;;;;5.70;4.90;;;;;;;10.17;71.05;100474.83;106272;1270;24371;-76
2022/05/31 04:51:47;;;;;;;6.10;4.60;;;;;;;10.24;71.08;100476.73;106204;1270;24285;-76
2022/05/31 04:54:19;;;;;;;6.10;4.90;;;;;;;10.31;71.01;100471.05;106331;1270;22539;-77
2022/05/31 04:57:00;;;;;;;6.40;5.80;;;;;;;10.39;71.00;100468.35;106471;1270;25367;-85
2022/05/31 04:59:28;;;;;;;7.00;5.70;;;;;;;10.46;70.83;100462.15;106381;1270;22528;-79
2022/05/31 05:01:55;;;;;;;10.00;5.40;;;;;;;10.49;70.60;100464.45;106285;1270;25409;-78
2022/05/31 05:04:35;;;;;;;5.50;5.00;;;;;;;10.50;70.54;100462.48;105982;1271;22551;-82
2022/05/31 05:07:02;;;;;;;5.20;4.60;;;;;;;10.51;70.58;100461.42;106110;1271;25500;-80
2022/05/31 05:09:29;;;;;;;7.40;5.60;;;;;;;10.54;70.44;100469.67;106243;1271;22615;-77
2022/05/31 05:12:32;;;;;;;6.40;5.10;;;;;;;10.66;70.59;100478.92;106063;1276;23951;-77
2022/05/31 05:15:07;;;;;;;7.00;5.80;;;;;;;10.73;70.48;100481.52;106395;1270;25450;-80
2022/05/31 05:17:35;;;;;;;6.10;4.70;;;;;;;10.77;70.43;100479.55;106329;1270;25262;-86
2022/05/31 05:20:03;;;;;;;5.90;5.20;;;;;;;10.81;70.30;100479.50;106091;1271;24298;-81
2022/05/31 05:22:29;;;;;;;6.70;4.70;;;;;;;10.82;70.02;100480.73;106141;1270;25251;-76
2022/05/31 05:24:57;;;;;;;6.80;4.80;;;;;;;10.83;70.14;100480.02;105778;1276;25299;-80
2022/05/31 05:27:24;;;;;;;7.20;5.50;;;;;;;10.87;70.19;100479.98;105772;1276;22525;-82
2022/05/31 05:33:22;;;;;;;4.20;3.80;;;;;;;11.04;70.11;100484.60;105507;1276;22749;-80
2022/05/31 05:36:15;;;;;;;5.40;4.90;;;;;;;11.08;69.83;100482.80;106012;1276;22622;-89
2022/05/31 05:38:42;;;;;;;5.80;5.10;;;;;;;11.13;70.00;100482.92;106045;1277;22515;-78
2022/05/31 05:41:30;;;;;;;7.20;5.00;;;;;;;11.23;70.06;100489.86;105888;1276;22563;-84
2022/05/31 05:44:16;;;;;;;7.80;4.60;;;;;;;11.33;69.81;100491.36;106233;1271;22708;-85
2022/05/31 05:46:43;;;;;;;5.70;5.10;;;;;;;11.39;69.36;100495.52;106154;1270;25250;-83
2022/05/31 05:49:11;;;;;;;5.30;4.80;;;;;;;11.46;69.33;100496.32;106351;1270;25242;-84
2022/05/31 05:51:38;;;;;;;6.60;4.80;;;;;;;11.51;69.04;100497.33;106228;1271;25374;-83
2022/05/31 05:54:31;;;;;;;6.40;5.30;;;;;;;11.54;68.95;100495.00;106396;1270;22551;-84
2022/05/31 05:57:16;;;;;;;5.80;5.20;;;;;;;11.60;69.07;100495.45;106350;1270;22697;-84
2022/05/31 06:00:02;;;;;;;7.50;5.70;;;;;;;11.68;69.02;100499.06;106129;1271;23052;-84
2022/05/31 06:02:57;;;;;;;8.30;5.70;;;;;;;11.75;68.73;100505.00;106172;1271;25361;-84
2022/05/31 06:05:56;;;;;;;7.90;4.70;;;;;;;11.80;68.69;100505.11;106238;1270;24273;-84
2022/05/31 06:08:33;;;;;;;6.40;4.70;;;;;;;11.86;68.74;100505.39;106117;1270;23869;-85
2022/05/31 06:11:47;;;;;;;9.40;5.10;;;;;;;11.92;68.73;100502.66;106176;1271;22578;-83
2022/05/31 06:14:43;;;;;;;8.50;5.30;;;;;;;12.05;68.39;100503.91;106370;1270;25368;-84
2022/05/31 06:17:15;;;;;;;7.30;4.50;;;;;;;12.11;68.06;100505.60;106369;1271;22570;-83
2022/05/31 06:19:45;;;;;;;6.40;5.80;;;;;;;12.17;67.80;100505.37;106228;1270;22553;-83
2022/05/31 06:22:12;;;;;;;7.90;5.10;;;;;;;12.21;67.74;100508.32;106521;1270;24284;-85
2022/05/31 06:24:59;;;;;;;5.70;5.10;;;;;;;12.28;67.53;100510.15;106359;1270;25243;-86
2022/05/31 06:27:50;;;;;;;8.80;5.20;;;;;;;12.37;67.51;100508.96;105869;1270;22523;-85
2022/05/31 06:30:18;;;;;;;5.50;4.30;;;;;;;12.45;67.38;100506.38;106121;1270;22548;-85
2022/05/31 06:32:46;;;;;;;5.00;4.50;;;;;;;12.50;67.02;100504.88;106181;1270;24222;-84
2022/05/31 06:35:13;;;;;;;5.30;4.40;;;;;;;12.59;66.79;100504.40;106171;1270;23085;-85
2022/05/31 06:37:56;;;;;;;4.70;4.10;;;;;;;12.66;65.76;100503.77;106002;1271;22537;-83
2022/05/31 06:40:23;;;;;;;6.20;4.20;;;;;;;12.70;65.74;100506.89;106168;1271;23148;-84
2022/05/31 06:43:06;;;;;;;5.60;4.30;;;;;;;12.76;65.25;100503.41;106216;1270;25299;-84
2022/05/31 06:46:10;;;;;;;4.10;3.50;;;;;;;12.79;64.98;100500.90;105925;1276;25425;-85
2022/05/31 06:48:57;;;;;;;4.10;3.70;;;;;;;12.83;65.23;100504.90;106259;1270;25414;-85
2022/05/31 06:57:52;;;;;;;6.00;4.60;;;;;;;13.01;64.62;100508.14;105820;1276;22537;-84
2022/05/31 07:00:32;;;;;;;4.40;4.00;;;;;;;13.04;64.72;100508.63;106052;1276;22728;-84
2022/05/31 07:02:59;;;;;;;3.80;3.50;;;;;;;13.10;64.17;100515.75;106054;1276;22838;-84
2022/05/31 07:05:32;;;;;;;4.00;3.50;;;;;;;13.16;63.99;100513.52;106040;1276;25423;-86
2022/05/31 07:07:59;;;;;;;5.10;3.50;;;;;;;13.17;63.82;100509.26;105769;1276;23057;-85
2022/05/31 07:11:01;;;;;;;4.40;3.30;;;;;;;13.29;63.54;100512.59;105229;1282;22584;-85
2022/05/31 07:13:47;;;;;;;5.30;3.40;;;;;;;13.36;62.87;100518.11;105235;1283;24102;-85
2022/05/31 07:16:37;;;;;;;3.70;3.40;;;;;;;13.43;62.66;100523.65;104953;1282;22550;-85
2022/05/31 07:19:23;;;;;;;3.70;3.20;;;;;;;13.52;62.75;100521.75;105163;1282;22698;-84
2022/05/31 07:21:51;;;;;;;3.70;3.20;;;;;;;13.59;61.99;100525.68;105222;1283;22580;-84
2022/05/31 07:24:18;;;;;;;3.90;3.10;;;;;;;13.62;61.56;100527.20;105149;1282;24233;-84
2022/05/31 07:27:11;;;;;;;3.70;2.90;;;;;;;13.69;60.94;100531.68;105331;1282;25257;-82
2022/05/31 07:29:38;;;;;;;6.00;3.00;;;;;;;13.73;60.13;100529.84;105349;1282;22564;-85
2022/05/31 07:32:05;;;;;;;4.70;3.20;;;;;;;13.79;60.73;100528.47;105798;1278;22542;-84
2022/05/31 07:34:52;;;;;;;3.40;3.10;;;;;;;13.87;60.65;100526.55;105962;1279;22494;-87
2022/05/31 07:37:19;;;;;;;5.70;3.70;;;;;;;13.91;60.53;100526.63;106556;1276;22541;-85
2022/05/31 07:39:48;;;;;;;5.40;3.90;;;;;;;13.97;60.22;100530.23;107610;1277;25242;-84
2022/05/31 07:42:16;;;;;;;4.40;3.10;;;;;;;14.00;59.84;100526.82;107566;1277;22503;-84
2022/05/31 07:44:44;;;;;;;3.70;3.40;;;;;;;14.09;60.10;100528.75;108110;1276;23046;-85
2022/05/31 07:47:11;;;;;;;5.00;4.10;;;;;;;14.17;59.83;100526.09;108994;1270;22532;-85
2022/05/31 07:49:38;;;;;;;4.70;3.30;;;;;;;14.27;60.07;100525.16;108633;1270;25198;-87
2022/05/31 07:52:14;;;;;;;;;;;;;;;14.37;59.58;100525.31;107816;1270;22663;-84
2022/05/31 07:54:44;;;;;;;5.20;2.70;;;;;;;14.48;59.62;100524.52;106588;1270;22747;-85
2022/05/31 08:01:05;;;;;;;3.10;2.70;;;;;;;14.71;59.06;100521.14;105808;1276;24315;-86
2022/05/31 08:03:34;;;;;;;3.20;2.90;;;;;;;14.83;57.54;100515.73;106204;1270;22522;-87
2022/05/31 08:06:03;;;;;;;3.50;2.50;;;;;;;15.01;57.51;100518.15;106290;1272;23151;-85
2022/05/31 08:08:30;;;;;;;3.60;2.60;;;;;;;15.14;57.25;100517.81;106448;1271;23973;-82
2022/05/31 08:11:04;;;;;;;3.80;2.90;;;;;;;15.28;56.73;100513.02;106419;1270;26640;-87
2022/05/31 08:13:32;;;;;;;3.70;2.60;;;;;;;15.38;56.02;100512.91;106403;1267;26619;-86
2022/05/31 08:16:01;;;;;;;4.20;2.50;;;;;;;15.50;56.16;100510.98;106267;1270;24341;-86
2022/05/31 08:18:28;;;;;;;2.30;2.10;;;;;;;15.67;55.72;100515.88;105988;1276;24277;-86
2022/05/31 08:21:04;;;;;;;3.70;2.70;;;;;;;15.77;54.94;100512.73;105793;1276;23764;-86
2022/05/31 08:23:31;;;;;;;2.60;2.40;;;;;;;15.81;54.80;100510.12;105903;1276;22666;-85
2022/05/31 08:26:01;;;;;;;4.00;2.80;;;;;;;15.90;54.70;100510.93;105830;1276;22578;-83
2022/05/31 08:28:29;;;;;;;2.30;2.10;;;;;;;16.03;54.85;100512.36;106147;1276;24214;-85
2022/05/31 08:30:59;;;;;;;2.50;2.20;;;;;;;16.14;53.70;100510.61;106019;1276;22714;-86
2022/05/31 08:33:27;;;;;;;2.90;2.30;;;;;;;16.20;52.36;100507.04;105931;1276;22537;-87
2022/05/31 08:35:55;;;;;;;3.60;2.20;;;;;;;16.22;52.48;100516.58;105844;1270;24283;-86
2022/05/31 08:38:30;;;;;;;;;;;;;;;16.29;52.11;100516.02;106218;1270;23933;-86
2022/05/31 08:41:24;;;;;;;3.30;1.80;;;;;;;16.32;51.68;100517.00;106246;1270;25307;-86
2022/05/31 08:44:02;;;;;;;2.00;1.80;;;;;;;16.25;50.84;100521.13;106242;1270;25298;-85
2022/05/31 08:46:35;;;;;;;5.20;2.30;;;;;;;16.27;50.87;100518.41;106393;1270;25402;-86
2022/05/31 08:49:17;;;;;;;2.90;2.30;;;;;;;16.41;51.08;100519.39;106257;1271;22659;-85
2022/05/31 08:52:04;;;;;;;2.70;1.90;;;;;;;16.51;50.40;100518.55;106191;1270;25444;-86
2022/05/31 08:57:41;;;;;;;3.50;1.70;;;;;;;16.60;48.71;100520.58;106059;1271;22541;-85
2022/05/31 09:00:23;;;;;;;1.90;1.70;;;;;;;16.71;48.44;100527.52;106333;1270;24225;-84
2022/05/31 09:03:18;;;;;;;2.20;2.00;;;;;;;16.76;48.60;100522.38;106131;1271;22521;-83
2022/05/31 09:06:12;;;;;;;2.00;1.70;;;;;;;16.91;48.84;100524.20;106314;1270;23023;-84
2022/05/31 09:09:04;;;;;;;1.70;1.50;;;;;;;17.05;48.35;100523.17;106398;1270;22565;-87
2022/05/31 09:11:41;;;;;;;2.50;2.20;;;;;;;17.15;47.66;100525.57;106454;1271;22660;-87
2022/05/31 09:14:33;;;;;;;6.40;3.30;;;;;;;17.20;48.09;100527.70;106559;1271;22708;-86
2022/05/31 09:17:03;;;;;;;3.20;2.60;;;;;;;17.36;48.06;100532.67;106234;1270;22635;-86
2022/05/31 09:19:42;;;;;;;4.90;2.50;;;;;;;17.44;47.80;100527.39;106245;1270;24209;-84
2022/05/31 09:22:10;;;;;;;1.80;1.50;;;;;;;17.53;47.40;100530.84;106324;1272;24356;-86
2022/05/31 09:24:41;;;;;;;1.90;1.80;;;;;;;17.62;47.25;100530.65;106712;1270;23789;-88
2022/05/31 09:27:11;;;;;;;2.60;2.00;;;;;;;17.73;46.82;100529.40;106543;1270;22866;-82
2022/05/31 09:30:01;;;;;;;3.00;2.10;;;;;;;17.83;46.88;100525.09;106339;1270;25361;-85
2022/05/31 09:32:47;;;;;;;3.60;2.10;;;;;;;18.04;46.95;100525.75;106365;1271;26518;-85
2022/05/31 09:35:29;;;;;;;4.00;2.30;;;;;;;18.25;46.48;100516.97;106691;1271;24249;-86
2022/05/31 09:38:34;;;;;;;2.30;2.10;;;;;;;18.38;46.15;100521.27;106708;1272;25648;-84
2022/05/31 09:41:07;;;;;;;2.20;2.00;;;;;;;18.51;45.61;100528.58;106639;1274;24741;-87
2022/05/31 09:43:36;;;;;;;3.90;2.30;;;;;;;18.51;44.60;100532.00;106394;1274;22700;-85
2022/05/31 09:46:26;;;;;;;2.10;1.80;;;;;;;18.52;45.27;100528.72;106331;1276;22511;-83
2022/05/31 09:48:56;;;;;;;3.20;1.50;;;;;;;18.69;45.65;100531.45;106054;1279;22531;-85
2022/05/31 09:51:44;;;;;;;2.00;1.60;;;;;;;18.82;44.33;100529.51;106118;1280;22802;-85
2022/05/31 09:57:22;;;;;;;2.80;1.50;;;;;;;19.03;44.23;100524.70;106027;1279;24266;-85
2022/05/31 10:00:20;;;;;;;1.80;1.70;;;;;;;19.04;42.66;100528.77;106070;1275;22690;-85
2022/05/31 10:03:02;;;;;;;3.40;1.80;;;;;;;18.92;43.53;100527.30;106170;1274;22552;-85
2022/05/31 10:05:29;;;;;;;3.00;1.60;;;;;;;18.94;43.30;100525.09;106177;1276;25249;-86
2022/05/31 10:07:57;;;;;;;2.20;2.00;;;;;;;18.92;43.61;100524.79;106238;1270;22567;-85
2022/05/31 10:10:36;;;;;;;3.90;1.50;;;;;;;19.13;43.67;100526.80;106226;1272;22678;-83
2022/05/31 10:13:09;;;;;;;6.10;3.50;;;;;;;19.35;43.38;100521.06;106239;1273;22570;-85
2022/05/31 10:15:50;;;;;;;1.70;1.60;;;;;;;19.53;42.78;100525.81;106237;1271;22621;-84
2022/05/31 10:18:31;;;;;;;3.00;2.00;;;;;;;19.31;42.62;100532.65;106665;1270;22567;-84
2022/05/31 10:21:05;;;;;;;2.90;1.80;;;;;;;19.27;42.74;100523.89;106067;1272;25360;-84
2022/05/31 10:23:37;;;;;;;2.40;1.70;;;;;;;19.18;42.93;100521.43;106495;1270;24365;-86
2022/05/31 10:26:26;;;;;;;3.50;1.50;;;;;;;19.23;42.86;100523.73;106503;1271;22629;-86
2022/05/31 10:29:28;;;;;;;1.90;1.50;;;;;;;19.24;42.94;100513.66;106525;1270;22869;-86
2022/05/31 10:32:25;;;;;;;1.50;1.40;;;;;;;19.49;43.06;100516.52;106461;1270;22705;-85
2022/05/31 10:35:05;;;;;;;1.50;1.40;;;;;;;19.74;42.46;100517.71;106771;1270;25497;-85
2022/05/31 10:37:32;;;;;;;1.60;1.30;;;;;;;19.91;41.96;100519.29;108316;1271;23859;-86
2022/05/31 10:40:10;;;;;;;1.30;1.10;;;;;;;20.06;40.61;100522.39;108476;1271;22815;-85
2022/05/31 10:42:44;;;;;;;0.80;0.80;;;;;;;20.08;39.62;100519.27;108534;1270;22541;-84
2022/05/31 10:45:26;;;;;;;3.70;1.80;;;;;;;20.16;39.47;100523.73;107078;1271;25374;-86
2022/05/31 10:48:00;;;;;;;2.50;1.40;;;;;;;20.26;39.84;100516.98;107473;1271;22642;-86
2022/05/31 10:50:50;;;;;;;2.60;1.80;;;;;;;20.26;39.90;100520.38;108888;1271;22523;-86
2022/05/31 10:53:34;;;;;;;1.50;1.40;;;;;;;20.57;40.34;100525.68;109156;1271;23058;-84
2022/05/31 10:56:06;;;;;;;1.50;1.40;;;;;;;20.76;39.01;100516.71;109642;1271;24636;-86
2022/05/31 10:58:42;;;;;;;2.30;1.60;;;;;;;20.39;39.43;100518.54;109541;1271;22522;-85
2022/05/31 11:01:39;;;;;;;2.00;1.40;;;;;;;20.23;39.87;100519.06;109568;1270;22621;-86
2022/05/31 11:04:21;;;;;;;1.50;1.40;;;;;;;20.29;39.37;100513.27;107531;1272;25370;-86
2022/05/31 11:06:51;;;;;;;2.10;1.50;;;;;;;20.52;39.57;100517.01;106410;1271;22743;-85
2022/05/31 11:12:32;;;;;;;1.90;1.30;;;;;;;20.63;38.25;100527.38;106254;1271;22581;-86
2022/05/31 11:15:40;;;;;;;1.40;1.10;;;;;;;20.50;38.84;100525.29;106342;1271;24208;-86
2022/05/31 11:18:22;;;;;;;2.00;1.30;;;;;;;20.30;38.83;100516.77;106101;1270;25359;-86
2022/05/31 11:21:00;;;;;;;1.40;1.10;;;;;;;20.14;38.98;100516.62;106357;1270;24289;-85
2022/05/31 11:23:54;;;;;;;2.20;1.60;;;;;;;20.27;39.14;100509.95;106443;1270;22544;-84
2022/05/31 11:26:58;;;;;;;1.60;1.20;;;;;;;20.54;38.58;100511.16;106244;1272;22608;-84
2022/05/31 11:29:52;;;;;;;1.70;1.40;;;;;;;20.73;37.91;100518.81;106336;1272;22768;-85
2022/05/31 11:32:22;;;;;;;1.30;1.10;;;;;;;20.79;37.65;100508.88;106207;1271;22541;-84
2022/05/31 11:35:20;;;;;;;2.00;1.30;;;;;;;20.99;37.67;100512.39;106324;1272;22534;-85
2022/05/31 11:38:04;;;;;;;1.10;1.00;;;;;;;20.91;37.39;100512.59;106106;1271;354663;-86
2022/05/31 11:40:37;;;;;;;3.40;1.40;;;;;;;20.43;36.68;100508.84;106363;1270;24104;-86
2022/05/31 11:43:30;;;;;;;3.70;1.20;;;;;;;20.02;36.72;100515.55;106220;1273;25993;-87
2022/05/31 11:46:28;;;;;;;1.40;1.30;;;;;;;20.09;37.55;100511.17;106262;1271;22704;-86
2022/05/31 11:49:02;;;;;;;1.30;1.20;;;;;;;20.48;37.28;100505.40;106271;1272;22707;-85
2022/05/31 11:52:11;;;;;;;1.40;1.10;;;;;;;20.88;37.54;100501.30;106277;1273;25260;-85
2022/05/31 11:58:07;;;;;;;1.50;1.10;;;;;;;21.73;36.28;100504.96;106623;1270;22518;-88
2022/05/31 12:01:02;;;;;;;1.70;1.40;;;;;;;21.62;35.43;100500.53;106686;1271;24215;-85
2022/05/31 12:03:47;;;;;;;3.80;1.50;;;;;;;21.68;34.37;100500.77;106766;1271;24331;-85
2022/05/31 12:06:45;;;;;;;30.10;10.00;;;;;;;21.80;34.58;100488.45;107199;1271;26653;-86
2022/05/31 12:09:36;;;;;;;9.50;5.10;;;;;;;22.06;34.65;100498.92;106480;1278;22528;-83
2022/05/31 12:12:14;;;;;;;9.70;3.10;;;;;;;21.71;34.38;100496.27;106187;1279;23190;-85
2022/05/31 12:14:52;;;;;;;4.20;1.50;;;;;;;21.46;34.80;100501.88;106043;1279;25937;-87
2022/05/31 12:17:22;;;;;;;2.40;1.40;;;;;;;21.15;34.69;100501.00;106026;1277;22545;-87
2022/05/31 12:19:59;;;;;;;2.30;1.40;;;;;;;20.96;34.98;100497.29;105790;1281;25350;-86
2022/05/31 12:22:33;;;;;;;1.20;1.10;;;;;;;20.88;35.51;100498.76;105809;1279;25827;-85
2022/05/31 12:25:10;;;;;;;1.30;1.10;;;;;;;20.84;35.43;100492.38;105822;1278;25006;-87
2022/05/31 12:28:05;;;;;;;1.80;0.90;;;;;;;21.13;35.83;100487.54;105797;1279;23242;-87
2022/05/31 12:31:10;;;;;;;2.60;1.10;;;;;;;21.51;35.15;100481.92;106017;1278;22748;-85